Time;durP1;ratioP1;P1;durP2;ratioP2;P2;SDS_P1;SDS_P2;PMS_P1;PMS_P2;Temp;Humidity;BMP_temperature;BMP_pressure;BME280_temperature;BME280_humidity;BME280_pressure;Samples;Min_cycle;Max_cycle;Signal;HPM_P1;HPM_P2
2024/01/13 00:00:21;;;;;;;20.2;12.9;;;;;;;;;;;;;
2024/01/13 00:02:46;;;;;;;21.2;13.5;;;;;;;;;;;;;
2024/01/13 00:05:16;;;;;;;21.4;13.5;;;;;;;;;;;;;
2024/01/13 00:07:40;;;;;;;21.3;13.5;;;;;;;;;;;;;
2024/01/13 00:10:05;;;;;;;23.2;14.4;;;;;;;;;;;;;
2024/01/13 00:12:30;;;;;;;23.7;14.6;;;;;;;;;;;;;
2024/01/13 00:14:59;;;;;;;24.5;15.6;;;;;;;;;;;;;
2024/01/13 00:17:24;;;;;;;22.2;15;;;;;;;;;;;;;
2024/01/13 00:19:50;;;;;;;27.6;15.7;;;;;;;;;;;;;
2024/01/13 00:22:15;;;;;;;21.3;14.4;;;;;;;;;;;;;
2024/01/13 00:24:40;;;;;;;21.3;12.4;;;;;;;;;;;;;
2024/01/13 00:27:05;;;;;;;19.1;12.7;;;;;;;;;;;;;
2024/01/13 00:29:31;;;;;;;20.4;12.3;;;;;;;;;;;;;
2024/01/13 00:31:57;;;;;;;18.1;11.5;;;;;;;;;;;;;
2024/01/13 00:34:23;;;;;;;19.3;12.6;;;;;;;;;;;;;
2024/01/13 00:36:48;;;;;;;20.1;13.2;;;;;;;;;;;;;
2024/01/13 00:39:16;;;;;;;23.8;14.6;;;;;;;;;;;;;
2024/01/13 00:41:41;;;;;;;22.2;14;;;;;;;;;;;;;
2024/01/13 00:44:07;;;;;;;21.7;14.2;;;;;;;;;;;;;
2024/01/13 00:46:32;;;;;;;21.4;12.6;;;;;;;;;;;;;
2024/01/13 00:48:57;;;;;;;19.2;12.6;;;;;;;;;;;;;
2024/01/13 00:51:22;;;;;;;21.2;13.5;;;;;;;;;;;;;
2024/01/13 00:53:47;;;;;;;25.8;15.1;;;;;;;;;;;;;
2024/01/13 00:56:13;;;;;;;25.5;15.7;;;;;;;;;;;;;
2024/01/13 00:58:40;;;;;;;22.8;15.1;;;;;;;;;;;;;
2024/01/13 01:01:05;;;;;;;26.6;14.9;;;;;;;;;;;;;
2024/01/13 01:03:32;;;;;;;25.7;15.1;;;;;;;;;;;;;
2024/01/13 01:05:57;;;;;;;24.9;14.4;;;;;;;;;;;;;
2024/01/13 01:08:24;;;;;;;21;12.8;;;;;;;;;;;;;
2024/01/13 01:10:49;;;;;;;21.5;13.8;;;;;;;;;;;;;
2024/01/13 01:13:15;;;;;;;25.9;14.9;;;;;;;;;;;;;
2024/01/13 01:15:40;;;;;;;22.1;13.3;;;;;;;;;;;;;
2024/01/13 01:18:07;;;;;;;53.2;27.4;;;;;;;;;;;;;
2024/01/13 01:20:32;;;;;;;23.9;14.3;;;;;;;;;;;;;
2024/01/13 01:23:00;;;;;;;20.2;12.6;;;;;;;;;;;;;
2024/01/13 01:25:32;;;;;;;23.4;12.8;;;;;;;;;;;;;
2024/01/13 01:28:01;;;;;;;18.9;10.6;;;;;;;;;;;;;
2024/01/13 01:30:26;;;;;;;14;8.5;;;;;;;;;;;;;
2024/01/13 01:32:54;;;;;;;12.7;8.4;;;;;;;;;;;;;
2024/01/13 01:35:20;;;;;;;12.1;7.3;;;;;;;;;;;;;
2024/01/13 01:37:47;;;;;;;10.3;6.8;;;;;;;;;;;;;
2024/01/13 01:40:12;;;;;;;12;6.7;;;;;;;;;;;;;
2024/01/13 01:42:39;;;;;;;9.8;6.3;;;;;;;;;;;;;
2024/01/13 01:45:04;;;;;;;11.3;6.6;;;;;;;;;;;;;
2024/01/13 01:47:31;;;;;;;8;5.4;;;;;;;;;;;;;
2024/01/13 01:49:56;;;;;;;9.9;6.8;;;;;;;;;;;;;
2024/01/13 01:52:22;;;;;;;13.2;7.3;;;;;;;;;;;;;
2024/01/13 01:54:47;;;;;;;12;7.8;;;;;;;;;;;;;
2024/01/13 01:57:13;;;;;;;11.2;6.9;;;;;;;;;;;;;
2024/01/13 01:59:38;;;;;;;13.3;7.3;;;;;;;;;;;;;
2024/01/13 02:02:04;;;;;;;9.9;6.6;;;;;;;;;;;;;
2024/01/13 02:04:29;;;;;;;9.4;6.5;;;;;;;;;;;;;
2024/01/13 02:06:57;;;;;;;11.8;6.2;;;;;;;;;;;;;
2024/01/13 02:09:22;;;;;;;7.4;5.1;;;;;;;;;;;;;
2024/01/13 02:11:49;;;;;;;7.3;4.8;;;;;;;;;;;;;
2024/01/13 02:14:14;;;;;;;8.6;5.4;;;;;;;;;;;;;
2024/01/13 02:16:42;;;;;;;8.7;5.3;;;;;;;;;;;;;
2024/01/13 02:19:07;;;;;;;8.6;5.1;;;;;;;;;;;;;
2024/01/13 02:21:33;;;;;;;8.2;4.8;;;;;;;;;;;;;
2024/01/13 02:23:58;;;;;;;8.3;4.8;;;;;;;;;;;;;
2024/01/13 02:26:25;;;;;;;7.9;5.3;;;;;;;;;;;;;
2024/01/13 02:28:48;;;;;;;10;5.8;;;;;;;;;;;;;
2024/01/13 02:31:14;;;;;;;12.9;7.3;;;;;;;;;;;;;
2024/01/13 02:33:40;;;;;;;7.9;5.6;;;;;;;;;;;;;
2024/01/13 02:36:05;;;;;;;10.3;6;;;;;;;;;;;;;
2024/01/13 02:38:31;;;;;;;7.5;5.3;;;;;;;;;;;;;
2024/01/13 02:40:56;;;;;;;8.7;6.5;;;;;;;;;;;;;
2024/01/13 02:43:23;;;;;;;7.6;5.7;;;;;;;;;;;;;
2024/01/13 02:45:48;;;;;;;9.5;5.3;;;;;;;;;;;;;
2024/01/13 02:48:17;;;;;;;9.1;5.3;;;;;;;;;;;;;
2024/01/13 02:50:45;;;;;;;7.8;5.1;;;;;;;;;;;;;
2024/01/13 02:53:10;;;;;;;8;4.8;;;;;;;;;;;;;
2024/01/13 02:55:39;;;;;;;7.7;4.9;;;;;;;;;;;;;
2024/01/13 02:58:02;;;;;;;9.7;5.4;;;;;;;;;;;;;
2024/01/13 03:00:27;;;;;;;7.2;5;;;;;;;;;;;;;
2024/01/13 03:02:53;;;;;;;8.6;5.2;;;;;;;;;;;;;
2024/01/13 03:05:22;;;;;;;8.6;5.6;;;;;;;;;;;;;
2024/01/13 03:07:49;;;;;;;9.9;5.5;;;;;;;;;;;;;
2024/01/13 03:10:14;;;;;;;9.4;5.3;;;;;;;;;;;;;
2024/01/13 03:12:43;;;;;;;7.2;4.8;;;;;;;;;;;;;
2024/01/13 03:15:10;;;;;;;9.2;5;;;;;;;;;;;;;
2024/01/13 03:17:40;;;;;;;9;5.4;;;;;;;;;;;;;
2024/01/13 03:20:07;;;;;;;7.9;4.8;;;;;;;;;;;;;
2024/01/13 03:22:36;;;;;;;9.5;5.3;;;;;;;;;;;;;
2024/01/13 03:24:58;;;;;;;10.9;5.7;;;;;;;;;;;;;
2024/01/13 03:27:24;;;;;;;9.6;5.7;;;;;;;;;;;;;
2024/01/13 03:29:49;;;;;;;8.2;5.4;;;;;;;;;;;;;
2024/01/13 03:32:16;;;;;;;11;5.8;;;;;;;;;;;;;
2024/01/13 03:34:41;;;;;;;8.9;5.9;;;;;;;;;;;;;
2024/01/13 03:37:08;;;;;;;10.2;6.3;;;;;;;;;;;;;
2024/01/13 03:39:33;;;;;;;10;5.9;;;;;;;;;;;;;
2024/01/13 03:41:59;;;;;;;8.5;5;;;;;;;;;;;;;
2024/01/13 03:44:24;;;;;;;7.2;4.6;;;;;;;;;;;;;
2024/01/13 03:46:49;;;;;;;9.2;5.5;;;;;;;;;;;;;
2024/01/13 03:49:15;;;;;;;20.1;9.4;;;;;;;;;;;;;
2024/01/13 03:51:42;;;;;;;10.9;6.2;;;;;;;;;;;;;
2024/01/13 03:54:07;;;;;;;8.6;4.7;;;;;;;;;;;;;
2024/01/13 03:56:34;;;;;;;7.7;4.3;;;;;;;;;;;;;
2024/01/13 03:58:59;;;;;;;6.1;3.9;;;;;;;;;;;;;
2024/01/13 04:02:38;;;;;;;8.2;4.8;;;;;;;-6.03;81.39746;943.9988;;;;
2024/01/13 04:05:07;;;;;;;7.6;4;;;;;;;-6.19;82.37695;943.9856;;;;
2024/01/13 04:07:47;;;;;;;5.2;3.6;;;;;;;-6.14;83.00977;943.9102;;;;
2024/01/13 04:10:23;;;;;;;5.5;3.2;;;;;;;-6.05;83.31445;943.8958;;;;
2024/01/13 04:12:54;;;;;;;5;3.1;;;;;;;-6.16;83.89648;943.9167;;;;
2024/01/13 04:15:28;;;;;;;4.7;3.1;;;;;;;-6.1;83.98438;943.8675;;;;
2024/01/13 04:17:58;;;;;;;2.9;2.6;;;;;;;-6.13;84.29785;943.8016;;;;
2024/01/13 04:20:32;;;;;;;3.6;2.8;;;;;;;-6.08;84.7041;943.7926;;;;
2024/01/13 04:23:08;;;;;;;4;2.7;;;;;;;-6.01;84.7168;943.7197;;;;
2024/01/13 04:25:41;;;;;;;5;3.3;;;;;;;-6;85.02637;943.7264;;;;
2024/01/13 04:28:13;;;;;;;6.4;3.9;;;;;;;-5.9;84.84863;943.6944;;;;
2024/01/13 04:30:41;;;;;;;6;3.5;;;;;;;-5.77;84.64551;943.5123;;;;
2024/01/13 04:33:13;;;;;;;3.3;2.8;;;;;;;-5.71;84.35059;943.5779;;;;
2024/01/13 04:35:43;;;;;;;4.8;3.4;;;;;;;-5.78;84.52148;943.5617;;;;
2024/01/13 04:38:12;;;;;;;3.5;2.7;;;;;;;-5.88;85.00781;943.4752;;;;
2024/01/13 04:40:47;;;;;;;4.6;3;;;;;;;-5.82;84.39258;943.4672;;;;
2024/01/13 04:43:17;;;;;;;4.8;3.3;;;;;;;-5.76;83.6582;943.4546;;;;
2024/01/13 04:45:49;;;;;;;5.2;3.3;;;;;;;-5.86;83.93555;943.4294;;;;
2024/01/13 04:48:17;;;;;;;4.1;2.9;;;;;;;-5.96;84.3877;943.4336;;;;
2024/01/13 04:50:50;;;;;;;9.5;5.6;;;;;;;-5.88;84.53516;943.376;;;;
2024/01/13 04:53:17;;;;;;;7.8;4.8;;;;;;;-5.96;85.21094;943.4202;;;;
2024/01/13 04:55:47;;;;;;;7;3.7;;;;;;;-5.9;85.67285;943.3979;;;;
2024/01/13 04:58:17;;;;;;;5.7;3.8;;;;;;;-5.89;85.61914;943.3635;;;;
2024/01/13 05:00:43;;;;;;;8.2;4.9;;;;;;;-5.68;85.26855;943.3544;;;;
2024/01/13 05:03:08;;;;;;;6.9;4.4;;;;;;;-5.78;85.16895;943.3834;;;;
2024/01/13 05:05:39;;;;;;;8.1;3.9;;;;;;;-5.74;84.89063;943.2656;;;;
2024/01/13 05:08:04;;;;;;;8.8;5.8;;;;;;;-5.57;83.91602;943.1825;;;;
2024/01/13 05:10:31;;;;;;;6.1;4.6;;;;;;;-5.61;83.67676;943.2808;;;;
2024/01/13 05:12:56;;;;;;;11;8.2;;;;;;;-5.62;83.74023;943.2828;;;;
2024/01/13 05:15:27;;;;;;;6;4.5;;;;;;;-5.87;84.12891;943.3035;;;;
2024/01/13 05:17:52;;;;;;;3.8;2.7;;;;;;;-5.9;84.05762;943.215;;;;
2024/01/13 05:20:18;;;;;;;4.1;2.6;;;;;;;-5.87;83.93164;943.298;;;;
2024/01/13 05:22:45;;;;;;;4.9;2.8;;;;;;;-5.84;83.98047;943.3245;;;;
2024/01/13 05:25:23;;;;;;;5;2.7;;;;;;;-5.8;83.81445;943.4113;;;;
2024/01/13 05:27:51;;;;;;;4.5;2.9;;;;;;;-5.83;84.25879;943.3976;;;;
2024/01/13 05:30:18;;;;;;;6.6;4.1;;;;;;;-5.75;83.93457;943.384;;;;
2024/01/13 05:32:43;;;;;;;6.9;4.4;;;;;;;-5.72;83.77539;943.3354;;;;
2024/01/13 05:35:18;;;;;;;6.1;3.3;;;;;;;-5.77;82.97363;943.3532;;;;
2024/01/13 05:37:45;;;;;;;5.3;3.5;;;;;;;-5.82;82.85449;943.2846;;;;
2024/01/13 05:40:14;;;;;;;5.5;3.8;;;;;;;-5.78;82.57617;943.3183;;;;
2024/01/13 05:42:43;;;;;;;6.4;3.4;;;;;;;-5.83;82.49023;943.2766;;;;
2024/01/13 05:45:11;;;;;;;5.6;3.3;;;;;;;;;;;;;
2024/01/13 05:47:36;;;;;;;5.4;3.5;;;;;;;;;;;;;
2024/01/13 05:50:02;;;;;;;5.9;3.3;;;;;;;;;;;;;
2024/01/13 05:52:27;;;;;;;5.3;3.3;;;;;;;;;;;;;
2024/01/13 05:54:53;;;;;;;3.3;2.5;;;;;;;;;;;;;
2024/01/13 05:57:18;;;;;;;4;2.7;;;;;;;;;;;;;
2024/01/13 05:59:46;;;;;;;16.9;8.3;;;;;;;;;;;;;
2024/01/13 06:02:11;;;;;;;13.7;7.4;;;;;;;;;;;;;
2024/01/13 06:04:37;;;;;;;15;7.4;;;;;;;;;;;;;
2024/01/13 06:07:04;;;;;;;14.1;8.8;;;;;;;;;;;;;
2024/01/13 06:09:27;;;;;;;11.3;6.6;;;;;;;;;;;;;
2024/01/13 06:11:52;;;;;;;9.8;5.3;;;;;;;;;;;;;
2024/01/13 06:14:18;;;;;;;9.4;5.7;;;;;;;;;;;;;
2024/01/13 06:16:47;;;;;;;9.3;5.4;;;;;;;;;;;;;
2024/01/13 06:19:12;;;;;;;9.1;5.8;;;;;;;;;;;;;
2024/01/13 06:21:37;;;;;;;10.9;7.3;;;;;;;;;;;;;
2024/01/13 06:24:02;;;;;;;12.6;7.8;;;;;;;;;;;;;
2024/01/13 06:26:28;;;;;;;10.9;7;;;;;;;;;;;;;
2024/01/13 06:28:53;;;;;;;8.6;6.1;;;;;;;;;;;;;
2024/01/13 06:31:20;;;;;;;10.1;6.2;;;;;;;;;;;;;
2024/01/13 06:33:45;;;;;;;7;5.2;;;;;;;;;;;;;
2024/01/13 06:36:13;;;;;;;10.8;6.1;;;;;;;;;;;;;
2024/01/13 06:38:38;;;;;;;7.9;5.3;;;;;;;;;;;;;
2024/01/13 06:41:08;;;;;;;12.8;7.6;;;;;;;;;;;;;
2024/01/13 06:43:33;;;;;;;11.6;8;;;;;;;;;;;;;
2024/01/13 06:45:58;;;;;;;13.4;9;;;;;;;;;;;;;
2024/01/13 06:48:26;;;;;;;10.1;7.3;;;;;;;;;;;;;
2024/01/13 06:50:51;;;;;;;8.4;5.6;;;;;;;;;;;;;
2024/01/13 06:53:18;;;;;;;17.9;11.6;;;;;;;;;;;;;
2024/01/13 06:55:43;;;;;;;15.6;9.9;;;;;;;;;;;;;
2024/01/13 06:58:08;;;;;;;11.4;8.1;;;;;;;;;;;;;
2024/01/13 07:00:34;;;;;;;11.6;8.6;;;;;;;;;;;;;
2024/01/13 07:03:01;;;;;;;21.6;16.8;;;;;;;;;;;;;
2024/01/13 07:05:26;;;;;;;44.3;34.8;;;;;;;;;;;;;
2024/01/13 07:07:53;;;;;;;48.5;38.3;;;;;;;;;;;;;
2024/01/13 07:10:18;;;;;;;27.4;16.8;;;;;;;;;;;;;
2024/01/13 07:12:47;;;;;;;20.5;14.7;;;;;;;;;;;;;
2024/01/13 07:15:12;;;;;;;16.9;12;;;;;;;;;;;;;
2024/01/13 07:17:39;;;;;;;19.2;12.5;;;;;;;;;;;;;
2024/01/13 07:20:07;;;;;;;17.4;12.2;;;;;;;;;;;;;
2024/01/13 07:22:30;;;;;;;17.6;10.5;;;;;;;;;;;;;
2024/01/13 07:24:57;;;;;;;17.9;11.1;;;;;;;;;;;;;
2024/01/13 07:27:23;;;;;;;13.4;9;;;;;;;;;;;;;
2024/01/13 07:29:48;;;;;;;14.1;9.4;;;;;;;;;;;;;
2024/01/13 07:32:13;;;;;;;11;8.7;;;;;;;;;;;;;
2024/01/13 07:34:39;;;;;;;9.2;7;;;;;;;;;;;;;
2024/01/13 07:37:04;;;;;;;9.7;7;;;;;;;;;;;;;
2024/01/13 07:39:31;;;;;;;8.2;6.2;;;;;;;;;;;;;
2024/01/13 07:41:56;;;;;;;7.9;5.9;;;;;;;;;;;;;
2024/01/13 07:44:22;;;;;;;12.8;7.9;;;;;;;;;;;;;
2024/01/13 07:46:48;;;;;;;25;11.8;;;;;;;;;;;;;
2024/01/13 07:49:14;;;;;;;24.9;15.4;;;;;;;;;;;;;
2024/01/13 07:51:39;;;;;;;18.8;10.9;;;;;;;;;;;;;
2024/01/13 07:54:04;;;;;;;19.7;11.4;;;;;;;;;;;;;
2024/01/13 07:56:32;;;;;;;25.3;13;;;;;;;;;;;;;
2024/01/13 07:58:58;;;;;;;31.2;16;;;;;;;;;;;;;
2024/01/13 08:01:23;;;;;;;18.7;10.8;;;;;;;;;;;;;
2024/01/13 08:03:48;;;;;;;28.3;14;;;;;;;;;;;;;
2024/01/13 08:06:17;;;;;;;26.6;14.4;;;;;;;;;;;;;
2024/01/13 08:08:43;;;;;;;25.9;13.3;;;;;;;;;;;;;
2024/01/13 08:11:09;;;;;;;22.7;12;;;;;;;;;;;;;
2024/01/13 08:13:34;;;;;;;13.8;7.4;;;;;;;;;;;;;
2024/01/13 08:16:02;;;;;;;76.3;36.8;;;;;;;;;;;;;
2024/01/13 08:18:27;;;;;;;61.7;30.9;;;;;;;;;;;;;
2024/01/13 08:20:52;;;;;;;30.2;17.4;;;;;;;;;;;;;
2024/01/13 08:23:17;;;;;;;27.2;15.5;;;;;;;;;;;;;
2024/01/13 08:25:46;;;;;;;75.5;42;;;;;;;;;;;;;
2024/01/13 08:28:10;;;;;;;58.4;35;;;;;;;;;;;;;
2024/01/13 08:30:39;;;;;;;111.3;56;;;;;;;;;;;;;
2024/01/13 08:33:04;;;;;;;39.1;23.1;;;;;;;;;;;;;
2024/01/13 08:35:34;;;;;;;88.3;47.2;;;;;;;;;;;;;
2024/01/13 08:38:04;;;;;;;101.4;55;;;;;;;;;;;;;
2024/01/13 08:40:34;;;;;;;33.5;21;;;;;;;;;;;;;
2024/01/13 08:43:04;;;;;;;42.8;25.5;;;;;;;;;;;;;
2024/01/13 08:45:29;;;;;;;52.7;31.9;;;;;;;;;;;;;
2024/01/13 08:47:58;;;;;;;17.3;11.1;;;;;;;;;;;;;
2024/01/13 08:50:23;;;;;;;15.3;11.5;;;;;;;;;;;;;
2024/01/13 08:52:54;;;;;;;26.2;17.2;;;;;;;;;;;;;
2024/01/13 08:55:15;;;;;;;17;11.7;;;;;;;;;;;;;
2024/01/13 08:57:41;;;;;;;19.4;12.9;;;;;;;;;;;;;
2024/01/13 09:00:06;;;;;;;18.6;12;;;;;;;;;;;;;
2024/01/13 09:02:36;;;;;;;26.9;17.3;;;;;;;;;;;;;
2024/01/13 09:05:04;;;;;;;19.3;13.2;;;;;;;;;;;;;
2024/01/13 09:07:29;;;;;;;22.3;14;;;;;;;;;;;;;
2024/01/13 09:09:55;;;;;;;12;8.1;;;;;;;;;;;;;
2024/01/13 09:12:20;;;;;;;85.9;42.3;;;;;;;;;;;;;
2024/01/13 09:14:47;;;;;;;27.5;15.4;;;;;;;;;;;;;
2024/01/13 09:17:12;;;;;;;77;38.1;;;;;;;;;;;;;
2024/01/13 09:19:39;;;;;;;21.9;14;;;;;;;;;;;;;
2024/01/13 09:22:04;;;;;;;25;15.5;;;;;;;;;;;;;
2024/01/13 09:24:30;;;;;;;31.3;18.8;;;;;;;;;;;;;
2024/01/13 09:26:56;;;;;;;40.1;24.5;;;;;;;;;;;;;
2024/01/13 09:29:24;;;;;;;31.6;20.6;;;;;;;;;;;;;
2024/01/13 09:31:49;;;;;;;154.6;74.8;;;;;;;;;;;;;
2024/01/13 09:34:17;;;;;;;220;104.9;;;;;;;;;;;;;
2024/01/13 09:36:44;;;;;;;88.7;43.2;;;;;;;;;;;;;
2024/01/13 09:39:10;;;;;;;115.7;56.5;;;;;;;;;;;;;
2024/01/13 09:41:33;;;;;;;111.6;48.8;;;;;;;;;;;;;
2024/01/13 09:44:01;;;;;;;81.5;37.8;;;;;;;;;;;;;
2024/01/13 09:46:26;;;;;;;103.3;53.8;;;;;;;;;;;;;
2024/01/13 09:48:55;;;;;;;42.1;24.5;;;;;;;;;;;;;
2024/01/13 09:51:20;;;;;;;22.5;13;;;;;;;;;;;;;
2024/01/13 09:53:48;;;;;;;10;6.3;;;;;;;;;;;;;
2024/01/13 09:56:12;;;;;;;11.9;7;;;;;;;;;;;;;
2024/01/13 09:58:38;;;;;;;12;7.5;;;;;;;;;;;;;
2024/01/13 10:01:03;;;;;;;7.4;5.1;;;;;;;;;;;;;
2024/01/13 10:03:29;;;;;;;67.3;35.3;;;;;;;;;;;;;
2024/01/13 10:05:54;;;;;;;34.5;19.9;;;;;;;;;;;;;
2024/01/13 10:08:19;;;;;;;56.8;30.8;;;;;;;;;;;;;
2024/01/13 10:10:45;;;;;;;8.3;6;;;;;;;;;;;;;
2024/01/13 10:13:10;;;;;;;101;54.3;;;;;;;;;;;;;
2024/01/13 10:15:37;;;;;;;88.8;45;;;;;;;;;;;;;
2024/01/13 10:18:03;;;;;;;34.1;18.4;;;;;;;;;;;;;
2024/01/13 10:20:30;;;;;;;8.2;5.1;;;;;;;;;;;;;
2024/01/13 10:22:55;;;;;;;18.1;9.2;;;;;;;;;;;;;
2024/01/13 10:25:22;;;;;;;37.9;19.6;;;;;;;;;;;;;
2024/01/13 10:27:47;;;;;;;71.6;34.4;;;;;;;;;;;;;
2024/01/13 10:30:15;;;;;;;41.7;19.8;;;;;;;;;;;;;
2024/01/13 10:32:40;;;;;;;23.5;10.7;;;;;;;;;;;;;
2024/01/13 10:35:15;;;;;;;6.7;4.5;;;;;;;;;;;;;
2024/01/13 10:37:35;;;;;;;9.2;3.7;;;;;;;;;;;;;
2024/01/13 10:40:04;;;;;;;4;2.9;;;;;;;;;;;;;
2024/01/13 10:42:37;;;;;;;71.1;29.5;;;;;;;;;;;;;
2024/01/13 10:45:03;;;;;;;42.7;17.6;;;;;;;;;;;;;
2024/01/13 10:47:28;;;;;;;12.9;5.4;;;;;;;;;;;;;
2024/01/13 10:49:56;;;;;;;44.8;19.2;;;;;;;;;;;;;
2024/01/13 10:52:22;;;;;;;36.2;15.1;;;;;;;;;;;;;
2024/01/13 10:54:47;;;;;;;20.6;9.6;;;;;;;;;;;;;
2024/01/13 10:57:13;;;;;;;48.2;21.3;;;;;;;;;;;;;
2024/01/13 10:59:38;;;;;;;9.6;5;;;;;;;;;;;;;
2024/01/13 11:02:03;;;;;;;11.9;6.4;;;;;;;;;;;;;
2024/01/13 11:04:28;;;;;;;82.8;35.8;;;;;;;;;;;;;
2024/01/13 11:06:54;;;;;;;26.2;12.3;;;;;;;;;;;;;
2024/01/13 11:09:20;;;;;;;13.7;6.1;;;;;;;;;;;;;
2024/01/13 11:11:45;;;;;;;18.4;9.3;;;;;;;;;;;;;
2024/01/13 11:14:11;;;;;;;24.9;11.1;;;;;;;;;;;;;
2024/01/13 11:16:37;;;;;;;42.8;16.3;;;;;;;;;;;;;
2024/01/13 11:19:02;;;;;;;82.6;33.7;;;;;;;;;;;;;
2024/01/13 11:21:30;;;;;;;67.3;29.7;;;;;;;;;;;;;
2024/01/13 11:23:55;;;;;;;21.9;12.3;;;;;;;;;;;;;
2024/01/13 11:26:20;;;;;;;22.4;10.2;;;;;;;;;;;;;
2024/01/13 11:28:46;;;;;;;20.8;10.2;;;;;;;;;;;;;
2024/01/13 11:31:11;;;;;;;33.4;14.6;;;;;;;;;;;;;
2024/01/13 11:33:36;;;;;;;41.7;19.8;;;;;;;;;;;;;
2024/01/13 11:36:03;;;;;;;42.4;23.5;;;;;;;;;;;;;
2024/01/13 11:38:31;;;;;;;27.2;14.3;;;;;;;;;;;;;
2024/01/13 11:41:00;;;;;;;28;16;;;;;;;;;;;;;
2024/01/13 11:43:26;;;;;;;21.4;12;;;;;;;;;;;;;
2024/01/13 11:45:53;;;;;;;21.8;12.4;;;;;;;;;;;;;
2024/01/13 11:48:18;;;;;;;8.8;5.9;;;;;;;;;;;;;
2024/01/13 11:50:45;;;;;;;8.3;5.5;;;;;;;;;;;;;
2024/01/13 11:53:10;;;;;;;21.8;12.9;;;;;;;;;;;;;
2024/01/13 11:55:36;;;;;;;13.8;8.8;;;;;;;;;;;;;
2024/01/13 11:58:01;;;;;;;11.8;7.5;;;;;;;;;;;;;
2024/01/13 12:00:27;;;;;;;9.2;5.7;;;;;;;;;;;;;
2024/01/13 12:02:52;;;;;;;5.7;4;;;;;;;;;;;;;
2024/01/13 12:05:21;;;;;;;5.6;3.8;;;;;;;;;;;;;
2024/01/13 12:07:50;;;;;;;4.2;2.8;;;;;;;;;;;;;
2024/01/13 12:10:15;;;;;;;12.1;7;;;;;;;;;;;;;
2024/01/13 12:12:41;;;;;;;6.3;3.6;;;;;;;;;;;;;
2024/01/13 12:15:12;;;;;;;5.3;4;;;;;;;;;;;;;
2024/01/13 12:17:39;;;;;;;8.1;3.6;;;;;;;;;;;;;
2024/01/13 12:20:06;;;;;;;6;4.3;;;;;;;;;;;;;
2024/01/13 12:22:33;;;;;;;4.8;2.8;;;;;;;;;;;;;
2024/01/13 12:24:59;;;;;;;3;2.4;;;;;;;;;;;;;
2024/01/13 12:27:29;;;;;;;3.5;2.4;;;;;;;;;;;;;
2024/01/13 12:29:53;;;;;;;6;3.9;;;;;;;;;;;;;
2024/01/13 12:32:19;;;;;;;4.4;3.1;;;;;;;;;;;;;
2024/01/13 12:34:45;;;;;;;4.1;3.2;;;;;;;;;;;;;
2024/01/13 12:37:10;;;;;;;4.3;2.7;;;;;;;;;;;;;
2024/01/13 12:39:38;;;;;;;3.7;2.6;;;;;;;;;;;;;
2024/01/13 12:42:03;;;;;;;4.1;2.7;;;;;;;;;;;;;
2024/01/13 12:44:30;;;;;;;5.3;3.4;;;;;;;;;;;;;
2024/01/13 12:46:55;;;;;;;4.6;3;;;;;;;;;;;;;
2024/01/13 12:49:23;;;;;;;8.2;4.7;;;;;;;;;;;;;
2024/01/13 12:51:49;;;;;;;5;3.7;;;;;;;;;;;;;
2024/01/13 12:54:15;;;;;;;4.9;3.3;;;;;;;;;;;;;
2024/01/13 12:56:40;;;;;;;5.3;3.7;;;;;;;;;;;;;
2024/01/13 12:59:07;;;;;;;6;3.9;;;;;;;;;;;;;
2024/01/13 13:01:32;;;;;;;7.3;3.9;;;;;;;;;;;;;
2024/01/13 13:04:01;;;;;;;5.7;3.4;;;;;;;;;;;;;
2024/01/13 13:06:29;;;;;;;6.9;3.6;;;;;;;;;;;;;
2024/01/13 13:08:54;;;;;;;4.9;3.4;;;;;;;;;;;;;
2024/01/13 13:11:22;;;;;;;4.5;3.2;;;;;;;;;;;;;
2024/01/13 13:13:53;;;;;;;5.1;3.5;;;;;;;;;;;;;
2024/01/13 13:16:18;;;;;;;15.3;8.6;;;;;;;;;;;;;
2024/01/13 13:18:48;;;;;;;14.7;8.7;;;;;;;;;;;;;
2024/01/13 13:21:11;;;;;;;9.2;5.4;;;;;;;;;;;;;
2024/01/13 13:23:38;;;;;;;31.8;17.5;;;;;;;;;;;;;
2024/01/13 13:26:04;;;;;;;21.4;12.7;;;;;;;;;;;;;
2024/01/13 13:28:30;;;;;;;27.9;17.3;;;;;;;;;;;;;
2024/01/13 13:30:55;;;;;;;58.1;35.5;;;;;;;;;;;;;
2024/01/13 13:33:21;;;;;;;21.5;14;;;;;;;;;;;;;
2024/01/13 13:35:46;;;;;;;12;8.6;;;;;;;;;;;;;
2024/01/13 13:38:13;;;;;;;15.9;9.3;;;;;;;;;;;;;
2024/01/13 13:40:38;;;;;;;12.3;7.8;;;;;;;;;;;;;
2024/01/13 13:43:04;;;;;;;9.5;6.5;;;;;;;;;;;;;
2024/01/13 13:45:29;;;;;;;11.2;6.9;;;;;;;;;;;;;
2024/01/13 13:47:56;;;;;;;9.5;5.8;;;;;;;;;;;;;
2024/01/13 13:50:20;;;;;;;9.4;5.5;;;;;;;;;;;;;
2024/01/13 13:52:48;;;;;;;9;5.9;;;;;;;;;;;;;
2024/01/13 13:55:13;;;;;;;8.6;5.8;;;;;;;;;;;;;
2024/01/13 13:57:41;;;;;;;8.6;5.9;;;;;;;;;;;;;
2024/01/13 14:00:07;;;;;;;9.9;6.2;;;;;;;;;;;;;
2024/01/13 14:02:36;;;;;;;9.6;6.6;;;;;;;;;;;;;
2024/01/13 14:05:05;;;;;;;8;5.9;;;;;;;;;;;;;
2024/01/13 14:07:30;;;;;;;8.3;6.4;;;;;;;;;;;;;
2024/01/13 14:09:57;;;;;;;8.6;6.2;;;;;;;;;;;;;
2024/01/13 14:12:22;;;;;;;8.5;6.1;;;;;;;;;;;;;
2024/01/13 14:14:50;;;;;;;11;6.2;;;;;;;;;;;;;
2024/01/13 14:17:15;;;;;;;9.8;6.8;;;;;;;;;;;;;
2024/01/13 14:19:42;;;;;;;9.9;6.3;;;;;;;;;;;;;
2024/01/13 14:22:07;;;;;;;9.7;6.4;;;;;;;;;;;;;
2024/01/13 14:24:34;;;;;;;10.7;6.6;;;;;;;;;;;;;
2024/01/13 14:27:00;;;;;;;10.8;7.2;;;;;;;;;;;;;
2024/01/13 14:29:26;;;;;;;10.8;7.3;;;;;;;;;;;;;
2024/01/13 14:31:52;;;;;;;10.6;7.2;;;;;;;;;;;;;
2024/01/13 14:34:18;;;;;;;10.4;7;;;;;;;;;;;;;
2024/01/13 14:36:42;;;;;;;10;7;;;;;;;;;;;;;
2024/01/13 14:39:10;;;;;;;10.9;6.9;;;;;;;;;;;;;
2024/01/13 14:41:35;;;;;;;10;7.2;;;;;;;;;;;;;
2024/01/13 14:44:01;;;;;;;11.3;7.5;;;;;;;;;;;;;
2024/01/13 14:46:26;;;;;;;11.5;8.1;;;;;;;;;;;;;
2024/01/13 14:48:52;;;;;;;20.4;13;;;;;;;;;;;;;
2024/01/13 14:51:20;;;;;;;21.3;13;;;;;;;;;;;;;
2024/01/13 14:53:42;;;;;;;23.5;14.8;;;;;;;;;;;;;
2024/01/13 14:56:09;;;;;;;21.9;14.6;;;;;;;;;;;;;
2024/01/13 14:58:34;;;;;;;24.5;17.1;;;;;;;;;;;;;
2024/01/13 15:01:00;;;;;;;44.9;30.3;;;;;;;;;;;;;
2024/01/13 15:03:25;;;;;;;44;27.5;;;;;;;;;;;;;
2024/01/13 15:05:52;;;;;;;30.1;18.5;;;;;;;;;;;;;
2024/01/13 15:08:17;;;;;;;23.5;14.4;;;;;;;;;;;;;
2024/01/13 15:10:45;;;;;;;21.4;13.2;;;;;;;;;;;;;
2024/01/13 15:13:08;;;;;;;45.9;25.9;;;;;;;;;;;;;
2024/01/13 15:15:37;;;;;;;81.1;42.7;;;;;;;;;;;;;
2024/01/13 15:18:02;;;;;;;42.4;24.4;;;;;;;;;;;;;
2024/01/13 15:20:30;;;;;;;34.7;20.3;;;;;;;;;;;;;
2024/01/13 15:22:59;;;;;;;25.2;14.9;;;;;;;;;;;;;
2024/01/13 15:25:24;;;;;;;21;12.8;;;;;;;;;;;;;
2024/01/13 15:27:52;;;;;;;62.9;31.6;;;;;;;;;;;;;
2024/01/13 15:30:17;;;;;;;37.2;20.6;;;;;;;;;;;;;
2024/01/13 15:32:45;;;;;;;43.9;26.6;;;;;;;;;;;;;
2024/01/13 15:35:10;;;;;;;67.3;39.8;;;;;;;;;;;;;
2024/01/13 15:37:38;;;;;;;58.1;34.9;;;;;;;;;;;;;
2024/01/13 15:40:10;;;;;;;61.1;34.6;;;;;;;;;;;;;
2024/01/13 15:42:33;;;;;;;55.7;32;;;;;;;;;;;;;
2024/01/13 15:45:00;;;;;;;39.9;24;;;;;;;;;;;;;
2024/01/13 15:47:25;;;;;;;59.1;33.2;;;;;;;;;;;;;
2024/01/13 15:49:51;;;;;;;53.7;29.5;;;;;;;;;;;;;
2024/01/13 15:52:16;;;;;;;65.5;32.8;;;;;;;;;;;;;
2024/01/13 15:54:44;;;;;;;48.4;26.6;;;;;;;;;;;;;
2024/01/13 15:57:10;;;;;;;42.5;22.8;;;;;;;;;;;;;
2024/01/13 15:59:37;;;;;;;33.5;19.9;;;;;;;;;;;;;
2024/01/13 16:02:02;;;;;;;33.2;19;;;;;;;;;;;;;
2024/01/13 16:04:31;;;;;;;37.7;22.4;;;;;;;;;;;;;
2024/01/13 16:06:55;;;;;;;41;22.9;;;;;;;;;;;;;
2024/01/13 16:09:25;;;;;;;28.6;18.4;;;;;;;;;;;;;
2024/01/13 16:11:55;;;;;;;33.3;20.4;;;;;;;;;;;;;
2024/01/13 16:14:20;;;;;;;35.7;22.2;;;;;;;;;;;;;
2024/01/13 16:16:51;;;;;;;40.6;24;;;;;;;;;;;;;
2024/01/13 16:19:13;;;;;;;36.9;22.7;;;;;;;;;;;;;
2024/01/13 16:21:43;;;;;;;39.3;24.2;;;;;;;;;;;;;
2024/01/13 16:24:14;;;;;;;71.2;36.3;;;;;;;;;;;;;
2024/01/13 16:26:37;;;;;;;77.6;37.3;;;;;;;;;;;;;
2024/01/13 16:29:05;;;;;;;68.2;34.7;;;;;;;;;;;;;
2024/01/13 16:31:30;;;;;;;59.3;32.5;;;;;;;;;;;;;
2024/01/13 16:33:56;;;;;;;46.5;27;;;;;;;;;;;;;
2024/01/13 16:36:22;;;;;;;50.7;31;;;;;;;;;;;;;
2024/01/13 16:38:49;;;;;;;43.8;27.9;;;;;;;;;;;;;
2024/01/13 16:41:15;;;;;;;60.2;36.3;;;;;;;;;;;;;
2024/01/13 16:43:42;;;;;;;44.2;29.8;;;;;;;;;;;;;
2024/01/13 16:46:06;;;;;;;48.5;28.8;;;;;;;;;;;;;
2024/01/13 16:48:33;;;;;;;42;26.1;;;;;;;;;;;;;
2024/01/13 16:50:58;;;;;;;51.4;29.1;;;;;;;;;;;;;
2024/01/13 16:53:25;;;;;;;69.8;40.9;;;;;;;;;;;;;
2024/01/13 16:55:50;;;;;;;45;28.1;;;;;;;;;;;;;
2024/01/13 16:58:17;;;;;;;38.2;25.3;;;;;;;;;;;;;
2024/01/13 17:00:42;;;;;;;53.1;29;;;;;;;;;;;;;
2024/01/13 17:03:10;;;;;;;36.6;24.1;;;;;;;;;;;;;
2024/01/13 17:05:35;;;;;;;48.1;27.1;;;;;;;;;;;;;
2024/01/13 17:08:01;;;;;;;48;29.8;;;;;;;;;;;;;
2024/01/13 17:10:26;;;;;;;44.6;27.2;;;;;;;;;;;;;
2024/01/13 17:12:53;;;;;;;42.3;26.7;;;;;;;;;;;;;
2024/01/13 17:15:18;;;;;;;54.4;33.2;;;;;;;;;;;;;
2024/01/13 17:17:52;;;;;;;48.1;29;;;;;;;;;;;;;
2024/01/13 17:20:19;;;;;;;46.9;29.7;;;;;;;;;;;;;
2024/01/13 17:22:49;;;;;;;40.3;28.8;;;;;;;;;;;;;
2024/01/13 17:25:13;;;;;;;45.2;28.4;;;;;;;;;;;;;
2024/01/13 17:27:41;;;;;;;40.6;27.5;;;;;;;;;;;;;
2024/01/13 17:30:06;;;;;;;47.9;31.5;;;;;;;;;;;;;
2024/01/13 17:32:36;;;;;;;49.7;32.9;;;;;;;;;;;;;
2024/01/13 17:35:05;;;;;;;44;29;;;;;;;;;;;;;
2024/01/13 17:37:29;;;;;;;42.7;28.3;;;;;;;;;;;;;
2024/01/13 17:39:55;;;;;;;54;34.7;;;;;;;;;;;;;
2024/01/13 17:42:21;;;;;;;58.2;38.6;;;;;;;;;;;;;
2024/01/13 17:44:48;;;;;;;62.6;39.2;;;;;;;;;;;;;
2024/01/13 17:47:13;;;;;;;55.8;37.4;;;;;;;;;;;;;
2024/01/13 17:51:53;;;;;;;57.4;36.3;;;;;;;-2.01;84.57813;938.0178;;;;
2024/01/13 17:54:25;;;;;;;62;38.4;;;;;;;-1.9;84.24512;938.022;;;;
2024/01/13 17:56:50;;;;;;;66.6;39.2;;;;;;;-2.03;84.3418;938.007;;;;
2024/01/13 17:59:21;;;;;;;72.6;41.1;;;;;;;-2.1;84.23828;938.058;;;;
2024/01/13 18:01:50;;;;;;;65.3;38.9;;;;;;;-2.12;83.8252;938.0447;;;;
2024/01/13 18:04:16;;;;;;;77.3;47.7;;;;;;;-2.12;83.82324;938.0834;;;;
2024/01/13 18:06:51;;;;;;;83.7;48.6;;;;;;;-2.25;84.39648;938.0528;;;;
2024/01/13 18:09:18;;;;;;;76.4;44.2;;;;;;;-2.07;83.74512;937.9476;;;;
2024/01/13 18:11:48;;;;;;;66.6;40.3;;;;;;;-2.05;83.17188;937.9813;;;;
2024/01/13 18:14:14;;;;;;;57.7;34.8;;;;;;;-2.09;83.04297;937.9705;;;;
2024/01/13 18:16:38;;;;;;;62.5;38.2;;;;;;;-2.22;83.20703;938.0271;;;;
2024/01/13 18:19:13;;;;;;;63.5;40.1;;;;;;;-2.41;83.56738;938.0003;;;;
2024/01/13 18:21:43;;;;;;;64;38.1;;;;;;;-2.45;83.95703;937.992;;;;
2024/01/13 18:24:13;;;;;;;58.5;35.4;;;;;;;-2.4;83.58984;938.0374;;;;
2024/01/13 18:26:40;;;;;;;56.9;33.7;;;;;;;-2.56;83.71387;937.9998;;;;
2024/01/13 18:29:08;;;;;;;57;33.3;;;;;;;-2.45;84.36719;938.0582;;;;
2024/01/13 18:31:34;;;;;;;59.1;34.3;;;;;;;-2.39;83.73535;937.9744;;;;
2024/01/13 18:34:00;;;;;;;64.9;38.9;;;;;;;-2.5;83.66016;938.05;;;;
2024/01/13 18:36:29;;;;;;;65.7;39.8;;;;;;;-2.52;83.43359;938.075;;;;
2024/01/13 18:38:57;;;;;;;62.7;40.1;;;;;;;-2.37;83.19629;937.935;;;;
2024/01/13 18:41:25;;;;;;;66.4;41;;;;;;;-2.45;83.32813;937.873;;;;
2024/01/13 18:43:50;;;;;;;69;42.5;;;;;;;-2.45;83.35059;937.9291;;;;
2024/01/13 18:46:23;;;;;;;58.4;36.3;;;;;;;-2.52;83.57715;937.9622;;;;
2024/01/13 18:48:52;;;;;;;54.5;32.8;;;;;;;-2.48;83.13086;938.0322;;;;
2024/01/13 18:51:17;;;;;;;56.8;35.9;;;;;;;;;;;;;
2024/01/13 18:53:44;;;;;;;64.9;36.7;;;;;;;;;;;;;
2024/01/13 18:56:09;;;;;;;55.3;35.3;;;;;;;;;;;;;
2024/01/13 18:58:35;;;;;;;55.6;35.8;;;;;;;;;;;;;
2024/01/13 19:01:00;;;;;;;55.5;33.5;;;;;;;;;;;;;
2024/01/13 19:03:25;;;;;;;56.5;34.1;;;;;;;;;;;;;
2024/01/13 19:05:50;;;;;;;51.2;33.2;;;;;;;;;;;;;
2024/01/13 19:08:19;;;;;;;71.6;48.8;;;;;;;;;;;;;
2024/01/13 19:10:45;;;;;;;63.8;38.8;;;;;;;;;;;;;